Time;durP1;ratioP1;P1;durP2;ratioP2;P2;SDS_P1;SDS_P2;PMS_P1;PMS_P2;Temp;Humidity;BMP_temperature;BMP_pressure;BME280_temperature;BME280_humidity;BME280_pressure;Samples;Min_cycle;Max_cycle;Signal;HPM_P1;HPM_P2
2021/05/14 00:00:31;;;;;;;0.60;0.60;;;;;;;11.84;67.81;98250.06;5083821;28;20227;-81
2021/05/14 00:02:59;;;;;;;0.83;0.60;;;;;;;11.94;66.57;98258.19;5096605;28;20225;-82
2021/05/14 00:05:26;;;;;;;0.90;0.73;;;;;;;11.88;67.06;98256.53;5080817;28;20256;-81
2021/05/14 00:07:53;;;;;;;1.40;0.60;;;;;;;11.84;66.64;98252.75;5087689;28;20219;-81
2021/05/14 00:10:21;;;;;;;0.60;0.60;;;;;;;12.02;66.22;98260.34;5104334;28;20223;-81
2021/05/14 00:12:52;;;;;;;0.60;0.60;;;;;;;11.96;66.02;98258.72;5122644;28;20223;-81
2021/05/14 00:15:19;;;;;;;1.70;0.70;;;;;;;11.96;65.57;98256.03;5121856;28;20230;-81
2021/05/14 00:17:46;;;;;;;0.70;0.60;;;;;;;12.02;65.84;98264.91;5120115;28;20268;-81
2021/05/14 00:20:14;;;;;;;0.60;0.60;;;;;;;12.08;65.54;98245.09;5079966;28;20315;-81
2021/05/14 00:22:41;;;;;;;0.87;0.70;;;;;;;12.05;65.52;98248.28;5081097;28;20250;-81
2021/05/14 00:25:10;;;;;;;0.60;0.60;;;;;;;11.93;66.21;98253.06;5122700;28;20227;-81
2021/05/14 00:27:37;;;;;;;0.80;0.80;;;;;;;11.90;66.38;98244.44;5121829;28;20238;-81
2021/05/14 00:30:06;;;;;;;0.70;0.70;;;;;;;12.01;65.63;98250.69;5067463;28;20572;-80
2021/05/14 00:32:34;;;;;;;1.00;0.60;;;;;;;11.86;65.91;98247.91;5048778;28;20216;-81
2021/05/14 00:35:01;;;;;;;0.50;0.50;;;;;;;11.90;66.13;98254.38;5115867;28;20300;-81
2021/05/14 00:37:29;;;;;;;0.63;0.63;;;;;;;11.91;66.07;98270.22;5104734;28;20386;-81
2021/05/14 00:39:58;;;;;;;0.60;0.60;;;;;;;11.84;65.96;98253.56;5090078;28;20229;-81
2021/05/14 00:42:25;;;;;;;0.80;0.80;;;;;;;11.86;66.68;98258.66;5064710;28;20239;-81
2021/05/14 00:44:51;;;;;;;0.70;0.70;;;;;;;11.89;65.90;98255.47;5077376;28;20223;-81
2021/05/14 00:47:19;;;;;;;0.60;0.60;;;;;;;11.82;66.14;98254.88;5122273;28;20228;-81
2021/05/14 00:49:47;;;;;;;0.67;0.67;;;;;;;11.75;66.63;98255.13;5094385;28;20221;-81
2021/05/14 00:52:16;;;;;;;0.80;0.80;;;;;;;11.97;65.67;98267.56;5063942;28;20225;-81
2021/05/14 00:54:45;;;;;;;0.67;0.67;;;;;;;11.88;66.02;98265.38;5087990;28;20276;-82
2021/05/14 00:57:15;;;;;;;1.27;0.60;;;;;;;11.79;66.25;98261.59;5104510;28;20235;-81
2021/05/14 00:59:49;;;;;;;1.90;0.80;;;;;;;11.73;66.84;98272.53;5092864;28;20231;-81
2021/05/14 01:02:16;;;;;;;1.00;0.70;;;;;;;11.64;66.59;98269.50;5083271;28;20228;-81
2021/05/14 01:04:44;;;;;;;0.80;0.80;;;;;;;11.65;66.44;98271.13;5089695;28;20282;-81
2021/05/14 01:07:12;;;;;;;0.80;0.70;;;;;;;11.73;66.39;98272.53;5081446;28;20299;-82
2021/05/14 01:09:40;;;;;;;0.70;0.70;;;;;;;11.74;66.12;98268.78;5089422;28;20265;-81
2021/05/14 01:12:09;;;;;;;2.10;0.70;;;;;;;11.75;66.02;98273.09;5100644;28;20234;-82
2021/05/14 01:14:40;;;;;;;0.60;0.60;;;;;;;11.81;65.44;98266.66;5085139;28;20224;-81
2021/05/14 01:17:08;;;;;;;0.70;0.70;;;;;;;11.78;65.23;98268.00;5084713;28;20290;-81
2021/05/14 01:19:34;;;;;;;2.03;0.80;;;;;;;11.83;65.26;98277.97;5094428;28;20247;-82
2021/05/14 01:22:03;;;;;;;1.17;0.90;;;;;;;11.74;65.69;98274.97;5064948;28;20225;-81
2021/05/14 01:24:31;;;;;;;0.80;0.80;;;;;;;11.77;65.83;98270.94;5080726;28;20236;-82
2021/05/14 01:27:02;;;;;;;0.80;0.80;;;;;;;11.62;66.24;98268.16;5081934;28;20363;-81
2021/05/14 01:29:29;;;;;;;0.87;0.80;;;;;;;11.68;66.80;98275.97;5074920;28;20219;-82
2021/05/14 01:31:56;;;;;;;1.00;1.00;;;;;;;11.55;66.74;98267.56;5122082;28;20253;-82
2021/05/14 01:34:25;;;;;;;0.90;0.90;;;;;;;11.56;66.94;98274.56;5084414;28;20574;-81
2021/05/14 01:36:52;;;;;;;0.90;0.90;;;;;;;11.38;67.89;98265.06;5084248;28;20251;-81
2021/05/14 01:39:23;;;;;;;1.20;1.10;;;;;;;11.56;67.15;98282.59;5098715;28;20717;-81
2021/05/14 01:41:51;;;;;;;1.23;1.00;;;;;;;11.69;66.10;98269.53;5064504;28;20224;-81
2021/05/14 01:44:19;;;;;;;0.90;0.80;;;;;;;11.59;66.33;98272.16;5064361;28;20216;-82
2021/05/14 01:46:46;;;;;;;2.00;0.83;;;;;;;11.49;67.32;98280.94;5048253;28;20243;-81
2021/05/14 01:49:14;;;;;;;0.87;0.87;;;;;;;11.61;66.54;98272.72;5081114;28;20220;-81
2021/05/14 01:51:40;;;;;;;0.90;0.90;;;;;;;11.54;66.95;98279.34;5067840;28;20239;-82
2021/05/14 01:54:08;;;;;;;1.10;1.00;;;;;;;11.62;67.02;98278.91;5100569;28;20224;-81
2021/05/14 01:56:35;;;;;;;1.20;0.90;;;;;;;11.58;67.20;98267.84;5101417;28;20639;-82
2021/05/14 01:59:04;;;;;;;1.00;1.00;;;;;;;11.61;67.44;98279.97;5100634;28;20224;-81
2021/05/14 02:01:31;;;;;;;1.50;1.00;;;;;;;11.55;68.05;98280.97;5082479;28;20242;-81
2021/05/14 02:03:58;;;;;;;1.07;1.07;;;;;;;11.51;68.03;98271.84;5084413;28;20228;-82
2021/05/14 02:06:25;;;;;;;1.37;1.27;;;;;;;11.41;68.55;98262.66;5083684;28;20605;-81
2021/05/14 02:08:52;;;;;;;1.20;1.10;;;;;;;11.54;68.75;98277.50;5105321;28;20226;-81
2021/05/14 02:11:19;;;;;;;1.30;1.13;;;;;;;11.39;68.77;98270.13;5104836;28;20232;-81
2021/05/14 02:13:45;;;;;;;1.60;1.20;;;;;;;11.42;70.01;98283.06;5105244;28;20238;-81
2021/05/14 02:16:14;;;;;;;1.40;1.30;;;;;;;11.35;69.66;98273.59;5074898;28;20624;-81
2021/05/14 02:18:41;;;;;;;1.17;1.10;;;;;;;11.42;69.67;98282.25;5085709;28;20221;-81
2021/05/14 02:21:08;;;;;;;1.20;1.10;;;;;;;11.53;69.31;98278.53;5080658;28;20224;-82
2021/05/14 02:23:37;;;;;;;2.10;1.20;;;;;;;11.41;69.72;98276.06;5089306;28;20281;-81
2021/05/14 02:26:04;;;;;;;0.90;0.90;;;;;;;11.42;69.99;98287.59;5072121;28;20224;-82
2021/05/14 02:28:31;;;;;;;1.40;1.30;;;;;;;11.45;70.15;98279.03;5106376;28;20223;-81
2021/05/14 02:31:02;;;;;;;1.43;1.33;;;;;;;11.35;70.60;98281.63;5088823;28;20228;-82
2021/05/14 02:33:29;;;;;;;1.10;1.03;;;;;;;11.37;70.44;98269.59;5088547;28;20538;-81
2021/05/14 02:35:57;;;;;;;1.97;1.30;;;;;;;11.40;70.50;98284.34;5087931;28;20223;-81
2021/05/14 02:38:25;;;;;;;1.20;1.10;;;;;;;11.33;71.00;98281.09;5106056;28;20285;-82
2021/05/14 02:40:53;;;;;;;1.07;0.97;;;;;;;11.26;71.24;98275.94;5105697;28;20220;-82
2021/05/14 02:43:20;;;;;;;1.13;1.03;;;;;;;11.34;71.27;98293.41;5088519;28;20234;-81
2021/05/14 02:45:49;;;;;;;1.00;1.00;;;;;;;11.32;70.33;98271.44;5099204;28;20224;-81
2021/05/14 02:48:19;;;;;;;0.83;0.83;;;;;;;11.31;71.15;98291.25;5083784;28;20216;-81
2021/05/14 02:50:46;;;;;;;2.80;1.10;;;;;;;11.22;71.33;98284.75;5072617;28;20216;-81
2021/05/14 02:53:13;;;;;;;1.10;1.10;;;;;;;11.30;71.22;98282.41;5104228;28;20235;-82
2021/05/14 02:55:40;;;;;;;1.27;1.00;;;;;;;11.23;71.55;98289.88;5102030;28;20217;-81
2021/05/14 02:58:07;;;;;;;0.90;0.90;;;;;;;11.42;70.74;98283.06;5067654;28;20228;-81
2021/05/14 03:00:34;;;;;;;0.97;0.97;;;;;;;11.30;71.17;98287.78;5074614;28;20223;-81
2021/05/14 03:03:01;;;;;;;0.87;0.87;;;;;;;11.42;70.76;98299.16;5090583;28;20223;-82
2021/05/14 03:05:27;;;;;;;1.00;1.00;;;;;;;11.45;70.91;98312.03;5106984;28;20231;-81
2021/05/14 03:07:55;;;;;;;1.23;1.00;;;;;;;11.37;71.30;98295.59;5065761;28;20335;-81
2021/05/14 03:10:22;;;;;;;0.70;0.70;;;;;;;11.29;71.51;98309.50;5082464;28;20240;-81
2021/05/14 03:12:51;;;;;;;3.80;1.07;;;;;;;11.59;70.66;98314.25;5082744;28;20308;-82
2021/05/14 03:15:18;;;;;;;1.10;0.87;;;;;;;11.52;70.54;98309.13;5100489;28;20236;-82
2021/05/14 03:17:47;;;;;;;0.90;0.90;;;;;;;11.41;70.58;98297.53;5051472;28;20232;-81
2021/05/14 03:20:15;;;;;;;0.70;0.70;;;;;;;11.51;70.60;98315.56;5083550;28;20220;-81
2021/05/14 03:22:42;;;;;;;0.80;0.80;;;;;;;11.43;70.63;98306.09;5118609;28;20226;-81
2021/05/14 03:25:10;;;;;;;1.27;0.97;;;;;;;11.44;70.23;98306.91;5124417;28;20238;-81
2021/05/14 03:27:37;;;;;;;0.90;0.90;;;;;;;11.58;70.07;98316.13;5093174;28;20629;-81
2021/05/14 03:30:06;;;;;;;1.10;1.00;;;;;;;11.53;70.32;98324.16;5066626;28;20243;-81
2021/05/14 03:32:33;;;;;;;0.93;0.87;;;;;;;11.50;70.38;98316.63;5096367;28;20227;-82
2021/05/14 03:35:01;;;;;;;1.00;1.00;;;;;;;11.51;69.79;98334.34;5107466;28;20239;-81
2021/05/14 03:37:28;;;;;;;0.70;0.70;;;;;;;11.54;69.61;98333.81;5081770;28;20658;-81
2021/05/14 03:40:02;;;;;;;1.57;0.80;;;;;;;11.56;69.22;98323.66;5084315;28;20632;-81
2021/05/14 03:42:30;;;;;;;0.90;0.90;;;;;;;11.59;69.76;98325.00;5108924;28;20630;-81
2021/05/14 03:44:57;;;;;;;0.83;0.83;;;;;;;11.61;69.51;98338.97;5107410;28;20216;-81
2021/05/14 03:47:24;;;;;;;0.80;0.80;;;;;;;11.60;69.50;98338.16;5106894;28;21019;-82
2021/05/14 03:49:52;;;;;;;0.73;0.73;;;;;;;11.57;70.37;98351.28;5106883;28;20241;-81
2021/05/14 03:52:21;;;;;;;1.17;0.90;;;;;;;11.62;69.92;98349.44;5104758;28;20240;-81
2021/05/14 03:54:54;;;;;;;0.97;0.80;;;;;;;11.71;69.26;98347.09;5084385;28;20224;-81
2021/05/14 03:57:21;;;;;;;0.93;0.90;;;;;;;11.53;69.85;98350.97;5102360;28;20286;-81
2021/05/14 03:59:48;;;;;;;0.90;0.90;;;;;;;11.53;69.54;98358.19;5125215;28;20254;-81
2021/05/14 04:02:15;;;;;;;0.87;0.83;;;;;;;11.58;69.07;98344.84;5106895;28;20223;-81
2021/05/14 04:04:42;;;;;;;0.90;0.90;;;;;;;11.72;68.08;98351.38;5125436;28;20231;-81
2021/05/14 04:07:13;;;;;;;0.80;0.80;;;;;;;11.67;68.18;98346.78;5083960;28;20564;-82
2021/05/14 04:09:47;;;;;;;0.77;0.77;;;;;;;11.71;68.10;98352.47;5086373;28;20285;-81
2021/05/14 04:15:01;;;;;;;0.70;0.70;;;;;;;11.76;67.70;98350.63;5083860;28;20235;-80
2021/05/14 04:17:29;;;;;;;0.70;0.70;;;;;;;11.89;67.13;98354.75;5057340;28;20285;-82
2021/05/14 04:19:58;;;;;;;0.70;0.70;;;;;;;11.90;66.96;98361.72;5103853;28;20224;-82
2021/05/14 04:22:26;;;;;;;0.90;0.80;;;;;;;11.86;67.08;98360.63;5102089;28;20291;-81
2021/05/14 04:24:53;;;;;;;1.37;0.83;;;;;;;11.95;66.82;98372.50;5085621;28;20220;-81
2021/05/14 04:27:20;;;;;;;1.00;0.70;;;;;;;12.04;66.13;98372.84;5086189;28;20238;-81
2021/05/14 04:29:47;;;;;;;1.40;0.90;;;;;;;11.96;66.34;98370.63;5103772;28;20227;-82
2021/05/14 04:32:14;;;;;;;1.47;0.83;;;;;;;12.07;66.36;98369.63;5103336;28;20224;-82
2021/05/14 04:34:41;;;;;;;1.10;0.67;;;;;;;11.94;65.97;98370.91;5086370;28;20220;-81
2021/05/14 04:37:11;;;;;;;1.50;0.60;;;;;;;12.03;65.78;98382.78;5085432;28;20696;-81
2021/05/14 04:39:38;;;;;;;0.60;0.60;;;;;;;12.13;65.78;98384.72;5083178;28;20270;-81
2021/05/14 04:42:05;;;;;;;1.17;0.70;;;;;;;12.10;65.42;98367.22;5083152;28;20232;-82
2021/05/14 04:44:32;;;;;;;0.77;0.77;;;;;;;12.27;64.88;98391.25;5102921;28;20228;-82
2021/05/14 04:47:00;;;;;;;1.07;0.70;;;;;;;12.27;65.08;98394.72;5103029;28;20236;-81
2021/05/14 04:49:27;;;;;;;0.80;0.80;;;;;;;12.36;65.28;98389.69;5083554;28;20233;-81
2021/05/14 04:51:53;;;;;;;1.17;0.70;;;;;;;12.42;64.39;98390.47;5065444;28;20228;-81
2021/05/14 04:54:21;;;;;;;0.50;0.50;;;;;;;12.48;64.15;98382.19;5100477;28;20707;-81
2021/05/14 04:56:48;;;;;;;1.30;0.57;;;;;;;12.59;63.58;98389.25;5103720;28;20232;-82
2021/05/14 04:59:15;;;;;;;0.60;0.60;;;;;;;12.65;63.33;98392.75;5102793;28;20230;-81
2021/05/14 05:01:41;;;;;;;1.80;0.63;;;;;;;12.66;63.25;98395.19;5103445;28;20525;-81
2021/05/14 05:04:13;;;;;;;0.50;0.50;;;;;;;12.88;62.61;98402.25;5103902;28;20223;-81
2021/05/14 05:06:41;;;;;;;0.57;0.57;;;;;;;12.88;62.61;98391.50;5103217;28;20232;-81
2021/05/14 05:09:07;;;;;;;0.60;0.60;;;;;;;13.04;62.31;98393.97;5073951;28;20224;-81
2021/05/14 05:11:34;;;;;;;0.50;0.50;;;;;;;13.19;62.01;98394.03;5066494;28;20260;-82
2021/05/14 05:14:01;;;;;;;0.50;0.50;;;;;;;13.38;60.98;98397.03;5065510;28;20235;-80
2021/05/14 05:16:28;;;;;;;0.53;0.53;;;;;;;13.59;59.98;98401.34;5083650;28;20243;-81
2021/05/14 05:18:54;;;;;;;0.50;0.50;;;;;;;13.67;59.58;98398.09;5066485;28;20221;-81
2021/05/14 05:21:21;;;;;;;0.47;0.47;;;;;;;13.78;59.90;98398.09;5066435;28;20229;-81
2021/05/14 05:23:49;;;;;;;0.50;0.50;;;;;;;14.04;59.10;98397.03;5075247;28;20220;-81
2021/05/14 05:26:17;;;;;;;1.37;0.60;;;;;;;14.19;59.15;98412.31;5084967;28;20235;-82
2021/05/14 05:28:44;;;;;;;0.30;0.30;;;;;;;14.30;58.17;98411.25;5093033;28;20565;-81
2021/05/14 05:31:11;;;;;;;0.40;0.40;;;;;;;14.50;58.14;98424.69;5045278;28;20256;-81
2021/05/14 05:33:38;;;;;;;0.50;0.50;;;;;;;14.58;58.02;98417.94;5057662;28;20264;-81
2021/05/14 05:36:05;;;;;;;1.03;0.40;;;;;;;14.84;57.77;98425.63;5073729;28;20657;-83
2021/05/14 05:38:33;;;;;;;0.63;0.40;;;;;;;14.89;57.58;98431.00;5065335;28;20261;-83
2021/05/14 05:41:00;;;;;;;0.50;0.50;;;;;;;14.86;57.59;98418.09;5081657;28;20587;-82
2021/05/14 05:43:27;;;;;;;0.50;0.50;;;;;;;14.90;57.15;98421.84;5081282;28;20217;-83
2021/05/14 05:45:54;;;;;;;0.60;0.60;;;;;;;14.85;57.55;98431.84;5081250;28;20257;-83
2021/05/14 05:48:21;;;;;;;0.30;0.30;;;;;;;14.83;57.24;98442.94;5095345;28;20239;-82
2021/05/14 05:50:50;;;;;;;0.60;0.50;;;;;;;14.87;57.80;98443.97;5060786;28;20243;-82
2021/05/14 05:53:17;;;;;;;0.50;0.50;;;;;;;14.69;58.05;98423.03;5044919;28;20233;-82
2021/05/14 05:55:44;;;;;;;0.50;0.50;;;;;;;14.86;57.48;98444.25;5080680;28;20236;-84
2021/05/14 05:58:12;;;;;;;0.40;0.40;;;;;;;14.83;57.10;98434.84;5097336;28;20582;-81
2021/05/14 06:00:40;;;;;;;1.53;0.50;;;;;;;14.56;58.44;98433.59;5081390;28;20231;-82
2021/05/14 06:03:10;;;;;;;0.63;0.53;;;;;;;14.58;58.43;98434.91;5100101;28;20674;-81
2021/05/14 06:05:38;;;;;;;1.27;0.50;;;;;;;14.59;58.97;98444.63;5079266;28;20229;-82
2021/05/14 06:08:05;;;;;;;0.40;0.40;;;;;;;14.66;58.21;98455.09;5048835;28;20236;-82
2021/05/14 06:10:32;;;;;;;1.70;0.53;;;;;;;14.68;57.91;98439.47;5115395;28;20221;-83
2021/05/14 06:12:59;;;;;;;0.77;0.53;;;;;;;14.80;57.45;98440.75;5105080;28;20229;-81
2021/05/14 06:15:25;;;;;;;2.37;0.50;;;;;;;14.90;57.40;98458.78;5074519;28;20225;-82
2021/05/14 06:17:52;;;;;;;0.67;0.60;;;;;;;14.84;57.60;98452.59;5061740;28;20574;-82
2021/05/14 06:20:22;;;;;;;0.60;0.60;;;;;;;15.09;56.77;98464.38;5106391;28;20628;-83
2021/05/14 06:22:49;;;;;;;1.20;0.50;;;;;;;15.10;56.42;98453.31;5101174;28;20223;-84
2021/05/14 06:25:18;;;;;;;0.93;0.50;;;;;;;15.18;56.14;98474.31;5076138;28;20290;-82
2021/05/14 06:27:45;;;;;;;0.50;0.50;;;;;;;15.14;56.17;98465.16;5061009;28;20232;-82
2021/05/14 06:30:12;;;;;;;0.83;0.60;;;;;;;15.18;56.65;98481.59;5059776;28;20241;-83
2021/05/14 06:32:39;;;;;;;0.67;0.50;;;;;;;15.14;56.65;98475.97;5043637;28;20231;-83
2021/05/14 06:35:07;;;;;;;0.50;0.50;;;;;;;15.15;56.56;98472.19;5097990;28;20229;-84
2021/05/14 06:37:37;;;;;;;0.40;0.40;;;;;;;15.14;56.89;98469.75;5100570;28;20262;-82
2021/05/14 06:40:07;;;;;;;0.40;0.40;;;;;;;15.19;56.29;98489.44;5074468;28;20214;-86
2021/05/14 06:42:34;;;;;;;0.50;0.50;;;;;;;15.32;56.02;98479.91;5064189;28;20225;-84
2021/05/14 06:45:04;;;;;;;0.40;0.40;;;;;;;15.45;55.72;98487.41;5088609;28;20225;-85
2021/05/14 06:47:31;;;;;;;0.60;0.60;;;;;;;15.49;55.98;98487.66;5059955;28;20231;-82
2021/05/14 06:50:03;;;;;;;0.50;0.50;;;;;;;15.76;55.47;98482.66;5040840;28;20221;-83
2021/05/14 06:52:31;;;;;;;0.63;0.50;;;;;;;15.83;55.34;98493.94;5084165;28;20334;-87
2021/05/14 06:54:57;;;;;;;0.60;0.50;;;;;;;15.53;54.80;98486.88;5104189;28;20231;-80
2021/05/14 06:57:24;;;;;;;1.23;0.60;;;;;;;15.73;54.46;98494.81;5043188;28;20227;-81
2021/05/14 06:59:51;;;;;;;0.63;0.50;;;;;;;15.69;53.75;98487.56;5069615;28;20245;-81
2021/05/14 07:02:18;;;;;;;0.50;0.50;;;;;;;15.82;54.14;98495.84;5099989;28;20350;-81
2021/05/14 07:04:45;;;;;;;0.83;0.50;;;;;;;15.90;53.46;98497.16;5076722;28;20223;-81
2021/05/14 07:07:12;;;;;;;0.53;0.53;;;;;;;15.90;53.58;98502.56;5077767;28;20226;-81
2021/05/14 07:09:39;;;;;;;0.50;0.50;;;;;;;16.01;54.34;98506.78;5079719;28;20231;-85
2021/05/14 07:12:06;;;;;;;0.93;0.47;;;;;;;16.04;53.96;98522.44;5099706;28;20239;-87
2021/05/14 07:14:33;;;;;;;1.87;0.50;;;;;;;16.25;52.46;98507.66;5117053;28;20535;-83
2021/05/14 07:17:02;;;;;;;0.77;0.70;;;;;;;16.30;52.35;98518.44;5116482;28;20240;-86
2021/05/14 07:19:29;;;;;;;0.67;0.57;;;;;;;16.57;51.72;98509.81;5099899;28;20242;-82
2021/05/14 07:21:56;;;;;;;0.50;0.50;;;;;;;16.77;51.00;98505.31;5080194;28;20227;-88
2021/05/14 07:24:24;;;;;;;0.50;0.50;;;;;;;17.03;50.22;98510.16;5096022;28;20343;-87
2021/05/14 07:26:51;;;;;;;1.03;0.50;;;;;;;17.56;49.05;98516.25;5078295;28;20231;-83
2021/05/14 07:29:18;;;;;;;0.60;0.50;;;;;;;17.51;48.85;98510.91;5075699;28;20233;-81
2021/05/14 07:31:45;;;;;;;0.87;0.53;;;;;;;17.61;48.40;98523.53;5043061;28;20282;-85
2021/05/14 07:34:12;;;;;;;0.50;0.40;;;;;;;17.94;47.80;98524.41;5058523;28;20323;-82
2021/05/14 07:36:55;;;;;;;0.40;0.40;;;;;;;17.82;47.35;98535.72;5081550;28;20242;-85
2021/05/14 07:39:23;;;;;;;0.50;0.50;;;;;;;17.61;47.26;98523.53;5099352;28;20238;-83
2021/05/14 07:41:49;;;;;;;0.73;0.60;;;;;;;17.68;47.97;98537.53;5066772;28;20235;-81
2021/05/14 07:44:16;;;;;;;0.80;0.50;;;;;;;17.37;48.43;98531.66;5095474;28;20228;-82
2021/05/14 07:46:43;;;;;;;1.50;0.60;;;;;;;17.37;48.83;98525.44;5081924;28;20224;-86
2021/05/14 07:49:10;;;;;;;1.30;0.50;;;;;;;17.43;48.90;98516.97;5076654;28;20234;-85
2021/05/14 07:51:37;;;;;;;0.70;0.57;;;;;;;17.58;48.08;98521.38;5069543;28;20230;-82
2021/05/14 07:54:06;;;;;;;1.53;0.50;;;;;;;17.64;48.54;98517.53;5027665;28;20259;-82
2021/05/14 07:56:33;;;;;;;0.60;0.40;;;;;;;18.01;48.46;98532.97;5084600;28;20235;-85
2021/05/14 07:59:00;;;;;;;0.60;0.60;;;;;;;18.11;48.61;98543.66;5058177;28;20228;-84
2021/05/14 08:01:27;;;;;;;1.37;0.50;;;;;;;18.35;47.43;98535.41;5052782;28;20215;-83
2021/05/14 08:03:54;;;;;;;0.77;0.50;;;;;;;18.68;47.56;98541.66;5077963;28;20220;-82
2021/05/14 08:06:21;;;;;;;0.50;0.50;;;;;;;18.89;47.29;98521.22;5085924;28;20243;-85
2021/05/14 08:08:48;;;;;;;0.40;0.37;;;;;;;19.20;46.40;98533.09;5094725;28;20219;-86
2021/05/14 08:11:15;;;;;;;2.03;0.63;;;;;;;19.32;45.55;98536.09;5096465;28;20223;-86
2021/05/14 08:13:42;;;;;;;0.93;0.40;;;;;;;19.23;45.14;98531.66;5073530;28;20503;-81
2021/05/14 08:16:09;;;;;;;1.63;0.60;;;;;;;19.59;45.38;98548.88;5100944;28;20788;-83
2021/05/14 08:18:36;;;;;;;0.80;0.60;;;;;;;19.79;44.53;98551.16;5081999;28;20222;-81
2021/05/14 08:21:03;;;;;;;0.70;0.63;;;;;;;19.86;44.08;98547.22;5108102;28;20311;-82
2021/05/14 08:23:31;;;;;;;0.70;0.70;;;;;;;19.53;45.38;98544.66;5040916;28;20844;-86
2021/05/14 08:25:57;;;;;;;0.60;0.60;;;;;;;19.59;44.46;98546.16;5078030;28;20266;-82
2021/05/14 08:28:24;;;;;;;0.70;0.63;;;;;;;19.74;44.21;98547.72;5114852;28;20536;-85
2021/05/14 08:30:51;;;;;;;0.60;0.60;;;;;;;19.79;44.32;98551.16;5097024;28;20219;-89
2021/05/14 08:33:18;;;;;;;1.23;0.70;;;;;;;19.88;44.25;98559.38;5074965;28;20667;-87
2021/05/14 08:35:45;;;;;;;0.70;0.70;;;;;;;19.75;44.00;98557.50;5074881;28;20225;-83
2021/05/14 08:38:12;;;;;;;0.70;0.70;;;;;;;19.52;44.93;98581.06;5075494;28;20237;-86
2021/05/14 08:40:40;;;;;;;1.20;0.70;;;;;;;19.67;44.19;98571.81;5075058;28;20221;-89
2021/05/14 08:43:08;;;;;;;0.90;0.80;;;;;;;19.73;43.89;98586.91;5076745;28;20229;-89
2021/05/14 08:45:35;;;;;;;0.70;0.70;;;;;;;19.32;44.43;98563.25;5074623;28;20225;-83
2021/05/14 08:48:04;;;;;;;0.83;0.83;;;;;;;18.93;45.81;98565.66;5108504;28;20247;-86
2021/05/14 08:50:31;;;;;;;0.70;0.70;;;;;;;18.93;45.65;98573.78;5093378;28;20225;-86
2021/05/14 08:52:58;;;;;;;0.97;0.90;;;;;;;18.79;46.21;98576.47;5057631;28;20261;-88
2021/05/14 08:55:24;;;;;;;0.93;0.90;;;;;;;18.63;46.42;98564.25;5092172;28;20770;-87
2021/05/14 08:57:52;;;;;;;2.40;0.90;;;;;;;18.76;46.35;98587.91;5077401;28;20227;-87
2021/05/14 09:00:20;;;;;;;0.80;0.70;;;;;;;18.67;46.96;98589.69;5076450;28;20225;-87
2021/05/14 09:02:47;;;;;;;1.30;0.80;;;;;;;18.41;47.11;98594.72;5065610;28;20229;-86
2021/05/14 09:05:29;;;;;;;1.10;0.80;;;;;;;18.17;47.11;98579.63;5040590;28;20232;-88
2021/05/14 09:07:56;;;;;;;1.90;0.93;;;;;;;17.92;47.40;98592.44;5069875;28;20236;-85
2021/05/14 09:10:26;;;;;;;1.10;0.80;;;;;;;17.55;48.09;98568.78;5057344;28;20233;-87
2021/05/14 09:12:54;;;;;;;0.73;0.73;;;;;;;17.90;48.01;98591.94;5053199;28;20306;-85
2021/05/14 09:15:32;;;;;;;0.70;0.70;;;;;;;18.16;46.27;98573.41;5077750;28;20247;-86
2021/05/14 09:18:02;;;;;;;1.50;0.67;;;;;;;18.52;45.58;98584.50;5095685;28;20231;-86
2021/05/14 09:20:49;;;;;;;1.10;0.60;;;;;;;18.65;45.23;98583.78;5077146;28;20250;-85
2021/05/14 09:23:17;;;;;;;1.43;0.80;;;;;;;19.06;44.38;98583.03;5075296;28;20524;-87
2021/05/14 09:25:52;;;;;;;0.50;0.50;;;;;;;19.72;42.66;98579.84;5114681;28;20230;-89
2021/05/14 09:28:26;;;;;;;0.80;0.70;;;;;;;19.78;42.03;98584.84;5101958;28;20224;-88
2021/05/14 09:31:21;;;;;;;1.47;0.70;;;;;;;19.57;42.82;98588.31;5098535;28;20276;-83
2021/05/14 09:33:55;;;;;;;1.97;1.10;;;;;;;19.95;41.48;98578.81;5076957;28;20225;-86
2021/05/14 09:36:26;;;;;;;0.50;0.50;;;;;;;20.01;41.75;98582.22;5057131;28;20228;-87
2021/05/14 09:38:54;;;;;;;0.93;0.50;;;;;;;20.68;41.10;98588.50;5091133;28;20229;-85
2021/05/14 09:41:34;;;;;;;0.93;0.70;;;;;;;20.63;39.75;98603.06;5077269;28;20228;-86
2021/05/14 09:44:01;;;;;;;1.53;0.63;;;;;;;20.43;40.62;98602.75;5073522;28;20216;-82
2021/05/14 09:46:31;;;;;;;1.57;0.70;;;;;;;20.29;40.71;98594.63;5057373;28;20229;-83
2021/05/14 09:49:02;;;;;;;1.80;0.50;;;;;;;20.53;39.77;98605.25;5069088;28;20216;-80
2021/05/14 09:51:29;;;;;;;0.90;0.70;;;;;;;20.13;40.45;98583.28;5093678;28;20227;-83
2021/05/14 09:53:56;;;;;;;0.90;0.50;;;;;;;20.35;40.88;98582.53;5078643;28;20224;-83
2021/05/14 09:56:33;;;;;;;1.00;0.43;;;;;;;20.08;40.80;98597.00;5089081;28;20237;-84
2021/05/14 09:59:02;;;;;;;1.23;1.00;;;;;;;19.89;40.56;98590.88;5079774;28;20670;-84
2021/05/14 10:01:29;;;;;;;1.13;0.63;;;;;;;20.32;40.74;98609.53;5056155;28;20229;-84
2021/05/14 10:03:56;;;;;;;0.60;0.60;;;;;;;20.75;40.79;98605.22;5073771;28;20228;-82
2021/05/14 10:06:24;;;;;;;0.50;0.50;;;;;;;20.93;39.35;98584.34;5068613;28;20230;-85
2021/05/14 10:08:52;;;;;;;2.93;0.67;;;;;;;20.89;38.51;98595.06;5063755;28;20504;-82
2021/05/14 10:11:21;;;;;;;1.10;0.70;;;;;;;20.62;39.66;98592.50;5055584;28;20234;-83
2021/05/14 10:13:48;;;;;;;0.73;0.60;;;;;;;20.54;38.94;98604.09;5078391;28;20252;-83
2021/05/14 10:16:15;;;;;;;0.73;0.60;;;;;;;20.54;38.35;98590.50;5096161;28;20280;-84
2021/05/14 10:18:44;;;;;;;1.00;0.60;;;;;;;20.44;38.32;98601.63;5077218;28;20221;-83
2021/05/14 10:21:12;;;;;;;0.60;0.60;;;;;;;20.49;38.74;98606.94;5076841;28;20224;-85
2021/05/14 10:23:55;;;;;;;1.10;0.60;;;;;;;20.89;38.26;98603.22;5094212;28;20535;-85
2021/05/14 10:26:35;;;;;;;0.60;0.60;;;;;;;21.09;37.48;98604.59;5059955;28;20283;-83
2021/05/14 10:29:10;;;;;;;0.60;0.60;;;;;;;21.07;36.86;98617.75;5066030;28;20537;-84
2021/05/14 10:31:43;;;;;;;0.50;0.50;;;;;;;20.76;37.33;98590.50;5100776;28;20247;-84
2021/05/14 10:34:14;;;;;;;0.40;0.40;;;;;;;20.82;37.41;98599.31;5093818;28;20222;-83
2021/05/14 10:36:47;;;;;;;1.73;0.57;;;;;;;20.83;36.97;98611.81;5064284;28;20234;-85
2021/05/14 10:39:21;;;;;;;0.60;0.60;;;;;;;20.96;36.76;98605.50;5066268;28;20531;-84
2021/05/14 10:41:50;;;;;;;1.53;0.57;;;;;;;21.15;36.48;98599.84;5117313;28;20217;-85
2021/05/14 10:44:19;;;;;;;0.60;0.60;;;;;;;21.09;36.29;98605.41;5077429;28;20239;-85
2021/05/14 10:46:46;;;;;;;1.03;0.60;;;;;;;21.19;35.85;98611.72;5046621;28;20236;-83
2021/05/14 10:49:14;;;;;;;0.90;0.50;;;;;;;20.96;36.57;98606.31;5073130;28;20578;-83
2021/05/14 10:51:50;;;;;;;1.70;0.60;;;;;;;20.69;37.27;98606.47;5100306;28;20238;-85
2021/05/14 10:54:39;;;;;;;0.70;0.60;;;;;;;21.76;35.86;98609.84;5097089;28;20628;-84
2021/05/14 10:57:10;;;;;;;0.70;0.60;;;;;;;21.86;35.66;98604.13;5076230;28;20219;-84
2021/05/14 10:59:41;;;;;;;2.00;0.50;;;;;;;22.27;34.79;98614.63;5060285;28;20226;-84
2021/05/14 11:02:27;;;;;;;0.90;0.60;;;;;;;22.39;34.06;98603.88;5096064;28;20241;-84
2021/05/14 11:05:25;;;;;;;0.93;0.60;;;;;;;22.57;32.89;98599.22;5079257;28;20221;-83
2021/05/14 11:07:53;;;;;;;0.50;0.50;;;;;;;22.14;34.58;98600.00;5063320;28;20230;-84
2021/05/14 11:10:28;;;;;;;0.67;0.57;;;;;;;22.29;33.75;98590.56;5062376;28;20268;-84
2021/05/14 11:12:55;;;;;;;0.60;0.57;;;;;;;22.06;34.39;98597.28;5043240;28;20644;-87
2021/05/14 11:15:35;;;;;;;0.70;0.50;;;;;;;22.04;33.93;98604.97;5075340;28;20234;-89
2021/05/14 11:18:05;;;;;;;3.30;0.60;;;;;;;22.03;34.29;98606.09;5062626;28;20225;-86
2021/05/14 11:20:46;;;;;;;1.40;0.60;;;;;;;22.03;33.89;98587.81;5063114;28;20558;-87
2021/05/14 11:23:39;;;;;;;1.87;0.70;;;;;;;22.29;34.19;98601.47;5076303;28;20227;-85
2021/05/14 11:26:17;;;;;;;1.10;0.60;;;;;;;22.47;33.55;98602.25;5058922;28;20231;-86
2021/05/14 11:28:46;;;;;;;0.60;0.50;;;;;;;22.15;33.86;98576.28;5043486;28;20223;-87
2021/05/14 11:31:24;;;;;;;0.90;0.60;;;;;;;22.76;33.56;98575.13;5099415;28;20655;-83
2021/05/14 11:33:52;;;;;;;0.50;0.50;;;;;;;23.09;32.73;98581.63;5098730;28;20633;-85
2021/05/14 11:36:21;;;;;;;1.17;0.53;;;;;;;23.13;32.61;98584.50;5092023;28;20230;-85
2021/05/14 11:38:54;;;;;;;0.97;0.63;;;;;;;23.14;32.91;98577.91;5059233;28;20225;-85
2021/05/14 11:41:24;;;;;;;0.60;0.50;;;;;;;23.25;33.19;98582.69;5075413;28;20250;-85
2021/05/14 11:44:02;;;;;;;0.50;0.50;;;;;;;23.30;33.61;98583.63;5058985;28;20545;-85